sensor_id;sensor_type;location;lat;lon;timestamp;temperature;humidity
60313;DHT22;46158;52.850;6.970;2024-01-15T00:02:18;14.60;69.20
60313;DHT22;46158;52.850;6.970;2024-01-15T00:04:43;14.50;69.20
60313;DHT22;46158;52.850;6.970;2024-01-15T00:07:09;14.50;69.20
60313;DHT22;46158;52.850;6.970;2024-01-15T00:09:35;14.50;69.30
60313;DHT22;46158;52.850;6.970;2024-01-15T00:12:01;14.50;69.30
60313;DHT22;46158;52.850;6.970;2024-01-15T00:14:27;14.40;69.20
60313;DHT22;46158;52.850;6.970;2024-01-15T00:16:53;14.40;69.20
60313;DHT22;46158;52.850;6.970;2024-01-15T00:19:21;14.40;69.30
60313;DHT22;46158;52.850;6.970;2024-01-15T00:21:46;14.40;69.30
60313;DHT22;46158;52.850;6.970;2024-01-15T00:24:12;14.30;69.30
60313;DHT22;46158;52.850;6.970;2024-01-15T00:26:38;14.30;69.30
60313;DHT22;46158;52.850;6.970;2024-01-15T00:29:04;14.30;69.30
60313;DHT22;46158;52.850;6.970;2024-01-15T00:31:30;14.30;69.30
60313;DHT22;46158;52.850;6.970;2024-01-15T00:33:56;14.30;69.30
60313;DHT22;46158;52.850;6.970;2024-01-15T00:36:22;14.20;69.30
60313;DHT22;46158;52.850;6.970;2024-01-15T00:38:48;14.20;69.30
60313;DHT22;46158;52.850;6.970;2024-01-15T00:41:14;14.20;69.30
60313;DHT22;46158;52.850;6.970;2024-01-15T00:43:40;14.20;69.30
60313;DHT22;46158;52.850;6.970;2024-01-15T00:46:06;14.20;69.30
60313;DHT22;46158;52.850;6.970;2024-01-15T00:48:32;14.10;69.30
60313;DHT22;46158;52.850;6.970;2024-01-15T00:50:57;14.10;69.30
60313;DHT22;46158;52.850;6.970;2024-01-15T00:53:23;14.10;69.30
60313;DHT22;46158;52.850;6.970;2024-01-15T00:55:49;14.10;69.30
60313;DHT22;46158;52.850;6.970;2024-01-15T00:58:15;14.10;69.40
60313;DHT22;46158;52.850;6.970;2024-01-15T01:00:41;14.10;69.40
60313;DHT22;46158;52.850;6.970;2024-01-15T01:03:07;14.00;69.40
60313;DHT22;46158;52.850;6.970;2024-01-15T01:05:34;14.00;69.30
60313;DHT22;46158;52.850;6.970;2024-01-15T01:07:59;14.00;70.00
60313;DHT22;46158;52.850;6.970;2024-01-15T01:10:25;14.00;69.30
60313;DHT22;46158;52.850;6.970;2024-01-15T01:12:51;14.00;69.40
60313;DHT22;46158;52.850;6.970;2024-01-15T01:15:16;14.00;69.30
60313;DHT22;46158;52.850;6.970;2024-01-15T01:17:42;13.90;69.30
60313;DHT22;46158;52.850;6.970;2024-01-15T01:20:08;13.90;69.30
60313;DHT22;46158;52.850;6.970;2024-01-15T01:22:35;13.90;69.30
60313;DHT22;46158;52.850;6.970;2024-01-15T01:25:00;13.90;69.30
60313;DHT22;46158;52.850;6.970;2024-01-15T01:27:26;13.90;69.30
60313;DHT22;46158;52.850;6.970;2024-01-15T01:29:52;13.80;69.20
60313;DHT22;46158;52.850;6.970;2024-01-15T01:32:18;13.80;69.20
60313;DHT22;46158;52.850;6.970;2024-01-15T01:34:44;13.80;69.20
60313;DHT22;46158;52.850;6.970;2024-01-15T01:37:10;13.80;69.30
60313;DHT22;46158;52.850;6.970;2024-01-15T01:39:38;13.80;69.20
60313;DHT22;46158;52.850;6.970;2024-01-15T01:42:04;13.80;69.30
60313;DHT22;46158;52.850;6.970;2024-01-15T01:44:29;13.70;69.20
60313;DHT22;46158;52.850;6.970;2024-01-15T01:46:56;13.70;69.20
60313;DHT22;46158;52.850;6.970;2024-01-15T01:49:23;13.70;69.20
60313;DHT22;46158;52.850;6.970;2024-01-15T01:51:49;13.70;69.30
60313;DHT22;46158;52.850;6.970;2024-01-15T01:54:15;13.60;69.20
60313;DHT22;46158;52.850;6.970;2024-01-15T01:56:41;13.70;69.20
60313;DHT22;46158;52.850;6.970;2024-01-15T01:59:10;13.60;69.20
60313;DHT22;46158;52.850;6.970;2024-01-15T02:01:36;13.60;69.20
60313;DHT22;46158;52.850;6.970;2024-01-15T02:04:02;13.60;69.20
60313;DHT22;46158;52.850;6.970;2024-01-15T02:06:28;13.60;69.20
60313;DHT22;46158;52.850;6.970;2024-01-15T02:08:54;13.60;69.20
60313;DHT22;46158;52.850;6.970;2024-01-15T02:11:20;13.50;69.20
60313;DHT22;46158;52.850;6.970;2024-01-15T02:13:45;13.50;69.20
60313;DHT22;46158;52.850;6.970;2024-01-15T02:16:11;13.50;69.20
60313;DHT22;46158;52.850;6.970;2024-01-15T02:18:43;13.50;69.10
60313;DHT22;46158;52.850;6.970;2024-01-15T02:21:10;13.50;68.90
60313;DHT22;46158;52.850;6.970;2024-01-15T02:23:36;13.50;69.00
60313;DHT22;46158;52.850;6.970;2024-01-15T02:26:03;13.50;69.00
60313;DHT22;46158;52.850;6.970;2024-01-15T02:28:29;13.50;69.00
60313;DHT22;46158;52.850;6.970;2024-01-15T02:30:55;13.50;68.90
60313;DHT22;46158;52.850;6.970;2024-01-15T02:33:20;13.50;68.80
60313;DHT22;46158;52.850;6.970;2024-01-15T02:35:46;13.50;68.80
60313;DHT22;46158;52.850;6.970;2024-01-15T02:38:12;13.50;68.80
60313;DHT22;46158;52.850;6.970;2024-01-15T02:40:38;13.50;68.70
60313;DHT22;46158;52.850;6.970;2024-01-15T02:43:04;13.50;69.30
60313;DHT22;46158;52.850;6.970;2024-01-15T02:45:30;13.50;68.60
60313;DHT22;46158;52.850;6.970;2024-01-15T02:47:56;13.50;68.60
60313;DHT22;46158;52.850;6.970;2024-01-15T02:50:21;13.50;68.60
60313;DHT22;46158;52.850;6.970;2024-01-15T02:52:47;13.50;68.60
60313;DHT22;46158;52.850;6.970;2024-01-15T02:55:12;13.50;68.60
60313;DHT22;46158;52.850;6.970;2024-01-15T02:57:38;13.40;68.50
60313;DHT22;46158;52.850;6.970;2024-01-15T03:00:04;13.40;68.50
60313;DHT22;46158;52.850;6.970;2024-01-15T03:02:30;13.40;68.50
60313;DHT22;46158;52.850;6.970;2024-01-15T03:04:58;13.40;68.50
60313;DHT22;46158;52.850;6.970;2024-01-15T03:07:23;13.40;68.50
60313;DHT22;46158;52.850;6.970;2024-01-15T03:09:49;13.40;68.50
60313;DHT22;46158;52.850;6.970;2024-01-15T03:12:15;13.40;68.50
60313;DHT22;46158;52.850;6.970;2024-01-15T03:14:41;13.40;68.40
60313;DHT22;46158;52.850;6.970;2024-01-15T03:17:06;13.40;68.40
60313;DHT22;46158;52.850;6.970;2024-01-15T03:19:35;13.40;68.40
60313;DHT22;46158;52.850;6.970;2024-01-15T03:22:00;13.40;68.30
60313;DHT22;46158;52.850;6.970;2024-01-15T03:24:29;13.40;68.30
60313;DHT22;46158;52.850;6.970;2024-01-15T03:26:55;13.40;68.30
60313;DHT22;46158;52.850;6.970;2024-01-15T03:29:21;13.40;68.30
60313;DHT22;46158;52.850;6.970;2024-01-15T03:31:47;13.40;68.20
60313;DHT22;46158;52.850;6.970;2024-01-15T03:34:13;13.40;68.20
60313;DHT22;46158;52.850;6.970;2024-01-15T03:36:38;13.40;68.20
60313;DHT22;46158;52.850;6.970;2024-01-15T03:39:04;13.40;68.20
60313;DHT22;46158;52.850;6.970;2024-01-15T03:41:29;13.40;68.20
60313;DHT22;46158;52.850;6.970;2024-01-15T03:43:55;13.40;68.30
60313;DHT22;46158;52.850;6.970;2024-01-15T03:46:20;13.40;68.20
60313;DHT22;46158;52.850;6.970;2024-01-15T03:48:46;13.40;68.20
60313;DHT22;46158;52.850;6.970;2024-01-15T03:51:11;13.40;68.20
60313;DHT22;46158;52.850;6.970;2024-01-15T03:53:38;13.40;68.20
60313;DHT22;46158;52.850;6.970;2024-01-15T03:56:04;13.40;68.20
60313;DHT22;46158;52.850;6.970;2024-01-15T03:58:29;13.30;68.10
60313;DHT22;46158;52.850;6.970;2024-01-15T04:00:55;13.30;68.10
60313;DHT22;46158;52.850;6.970;2024-01-15T04:03:21;13.30;68.10
60313;DHT22;46158;52.850;6.970;2024-01-15T04:05:46;13.30;68.00
60313;DHT22;46158;52.850;6.970;2024-01-15T04:08:12;13.30;68.00
60313;DHT22;46158;52.850;6.970;2024-01-15T04:10:37;13.30;67.90
60313;DHT22;46158;52.850;6.970;2024-01-15T04:13:03;13.30;67.90
60313;DHT22;46158;52.850;6.970;2024-01-15T04:15:29;13.30;67.80
60313;DHT22;46158;52.850;6.970;2024-01-15T04:17:54;13.30;67.80
60313;DHT22;46158;52.850;6.970;2024-01-15T04:20:20;13.30;67.80
60313;DHT22;46158;52.850;6.970;2024-01-15T04:22:45;13.40;67.70
60313;DHT22;46158;52.850;6.970;2024-01-15T04:25:11;13.40;67.70
60313;DHT22;46158;52.850;6.970;2024-01-15T04:27:37;13.40;67.60
60313;DHT22;46158;52.850;6.970;2024-01-15T04:30:03;13.40;67.60
60313;DHT22;46158;52.850;6.970;2024-01-15T04:32:28;13.40;67.60
60313;DHT22;46158;52.850;6.970;2024-01-15T04:34:55;13.40;67.50
60313;DHT22;46158;52.850;6.970;2024-01-15T04:37:20;13.40;67.50
60313;DHT22;46158;52.850;6.970;2024-01-15T04:39:46;13.40;67.50
60313;DHT22;46158;52.850;6.970;2024-01-15T04:42:11;13.40;67.40
60313;DHT22;46158;52.850;6.970;2024-01-15T04:44:37;13.40;67.40
60313;DHT22;46158;52.850;6.970;2024-01-15T04:47:03;13.50;67.40
60313;DHT22;46158;52.850;6.970;2024-01-15T04:49:28;13.50;67.30
60313;DHT22;46158;52.850;6.970;2024-01-15T04:51:55;13.50;67.30
60313;DHT22;46158;52.850;6.970;2024-01-15T04:54:20;13.50;67.30
60313;DHT22;46158;52.850;6.970;2024-01-15T04:56:46;13.50;67.30
60313;DHT22;46158;52.850;6.970;2024-01-15T04:59:13;13.50;67.90
60313;DHT22;46158;52.850;6.970;2024-01-15T05:01:40;13.50;67.10
60313;DHT22;46158;52.850;6.970;2024-01-15T05:04:05;13.60;67.20
60313;DHT22;46158;52.850;6.970;2024-01-15T05:06:31;13.60;67.10
60313;DHT22;46158;52.850;6.970;2024-01-15T05:08:57;13.60;67.10
60313;DHT22;46158;52.850;6.970;2024-01-15T05:11:22;13.60;67.00
60313;DHT22;46158;52.850;6.970;2024-01-15T05:13:48;13.60;67.00
60313;DHT22;46158;52.850;6.970;2024-01-15T05:16:13;13.60;66.90
60313;DHT22;46158;52.850;6.970;2024-01-15T05:18:39;13.60;66.90
60313;DHT22;46158;52.850;6.970;2024-01-15T05:21:05;13.60;66.90
60313;DHT22;46158;52.850;6.970;2024-01-15T05:23:34;13.60;66.90
60313;DHT22;46158;52.850;6.970;2024-01-15T05:26:00;13.60;66.90
60313;DHT22;46158;52.850;6.970;2024-01-15T05:28:25;13.60;66.90
60313;DHT22;46158;52.850;6.970;2024-01-15T05:30:51;13.60;66.80
60313;DHT22;46158;52.850;6.970;2024-01-15T05:33:17;13.60;66.80
60313;DHT22;46158;52.850;6.970;2024-01-15T05:35:43;13.60;66.80
60313;DHT22;46158;52.850;6.970;2024-01-15T05:38:08;13.60;66.80
60313;DHT22;46158;52.850;6.970;2024-01-15T05:40:34;13.60;66.80
60313;DHT22;46158;52.850;6.970;2024-01-15T05:43:00;13.60;66.80
60313;DHT22;46158;52.850;6.970;2024-01-15T05:45:30;13.60;67.50
60313;DHT22;46158;52.850;6.970;2024-01-15T05:47:55;13.70;67.60
60313;DHT22;46158;52.850;6.970;2024-01-15T05:50:21;13.60;67.10
60313;DHT22;46158;52.850;6.970;2024-01-15T05:52:47;13.70;67.30
60313;DHT22;46158;52.850;6.970;2024-01-15T05:55:13;13.70;67.50
60313;DHT22;46158;52.850;6.970;2024-01-15T05:57:39;13.70;67.70
60313;DHT22;46158;52.850;6.970;2024-01-15T06:00:05;13.70;67.90
60313;DHT22;46158;52.850;6.970;2024-01-15T06:02:30;13.70;68.00
60313;DHT22;46158;52.850;6.970;2024-01-15T06:04:56;13.80;68.30
60313;DHT22;46158;52.850;6.970;2024-01-15T06:07:22;13.80;68.30
60313;DHT22;46158;52.850;6.970;2024-01-15T06:09:48;13.90;68.50
60313;DHT22;46158;52.850;6.970;2024-01-15T06:12:14;13.80;68.60
60313;DHT22;46158;52.850;6.970;2024-01-15T06:14:39;13.90;68.80
60313;DHT22;46158;52.850;6.970;2024-01-15T06:17:06;14.00;68.90
60313;DHT22;46158;52.850;6.970;2024-01-15T06:19:32;14.00;69.00
60313;DHT22;46158;52.850;6.970;2024-01-15T06:21:57;14.00;69.00
60313;DHT22;46158;52.850;6.970;2024-01-15T06:24:23;14.00;69.10
60313;DHT22;46158;52.850;6.970;2024-01-15T06:26:49;14.10;69.20
60313;DHT22;46158;52.850;6.970;2024-01-15T06:29:14;14.10;69.30
60313;DHT22;46158;52.850;6.970;2024-01-15T06:31:40;14.20;69.40
60313;DHT22;46158;52.850;6.970;2024-01-15T06:34:05;14.20;69.50
60313;DHT22;46158;52.850;6.970;2024-01-15T06:36:31;14.20;69.60
60313;DHT22;46158;52.850;6.970;2024-01-15T06:38:57;14.20;69.60
60313;DHT22;46158;52.850;6.970;2024-01-15T06:41:22;14.30;69.70
60313;DHT22;46158;52.850;6.970;2024-01-15T06:43:48;14.30;69.70
60313;DHT22;46158;52.850;6.970;2024-01-15T06:46:22;14.40;69.80
60313;DHT22;46158;52.850;6.970;2024-01-15T06:48:48;14.40;69.90
60313;DHT22;46158;52.850;6.970;2024-01-15T06:51:15;14.50;69.80
60313;DHT22;46158;52.850;6.970;2024-01-15T06:53:41;14.50;69.80
60313;DHT22;46158;52.850;6.970;2024-01-15T06:56:07;14.50;69.80
60313;DHT22;46158;52.850;6.970;2024-01-15T06:58:32;14.60;69.80
60313;DHT22;46158;52.850;6.970;2024-01-15T07:00:58;14.60;69.80
60313;DHT22;46158;52.850;6.970;2024-01-15T07:03:23;14.60;69.80
60313;DHT22;46158;52.850;6.970;2024-01-15T07:05:49;14.60;69.80
60313;DHT22;46158;52.850;6.970;2024-01-15T07:08:15;14.60;69.80
60313;DHT22;46158;52.850;6.970;2024-01-15T07:10:41;14.70;69.80
60313;DHT22;46158;52.850;6.970;2024-01-15T07:13:06;14.70;69.80
60313;DHT22;46158;52.850;6.970;2024-01-15T07:15:32;14.80;69.80
60313;DHT22;46158;52.850;6.970;2024-01-15T07:17:57;14.80;69.90
60313;DHT22;46158;52.850;6.970;2024-01-15T07:20:23;14.80;69.80
60313;DHT22;46158;52.850;6.970;2024-01-15T07:22:49;14.80;69.80
60313;DHT22;46158;52.850;6.970;2024-01-15T07:25:15;14.80;69.70
60313;DHT22;46158;52.850;6.970;2024-01-15T07:27:41;14.90;69.70
60313;DHT22;46158;52.850;6.970;2024-01-15T07:30:11;14.90;69.70
60313;DHT22;46158;52.850;6.970;2024-01-15T07:32:37;14.90;69.50
60313;DHT22;46158;52.850;6.970;2024-01-15T07:35:03;14.90;69.50
60313;DHT22;46158;52.850;6.970;2024-01-15T07:37:29;15.00;69.50
60313;DHT22;46158;52.850;6.970;2024-01-15T07:39:54;15.00;69.50
60313;DHT22;46158;52.850;6.970;2024-01-15T07:42:20;15.00;69.50
60313;DHT22;46158;52.850;6.970;2024-01-15T07:44:45;15.00;69.40
60313;DHT22;46158;52.850;6.970;2024-01-15T07:47:11;15.00;69.40
60313;DHT22;46158;52.850;6.970;2024-01-15T07:49:37;15.00;69.40
60313;DHT22;46158;52.850;6.970;2024-01-15T07:52:03;15.00;69.40
60313;DHT22;46158;52.850;6.970;2024-01-15T07:54:30;15.00;69.10
60313;DHT22;46158;52.850;6.970;2024-01-15T07:56:59;15.00;69.30
60313;DHT22;46158;52.850;6.970;2024-01-15T07:59:26;15.00;69.20
60313;DHT22;46158;52.850;6.970;2024-01-15T08:01:52;15.00;69.20
60313;DHT22;46158;52.850;6.970;2024-01-15T08:04:18;15.00;69.20
60313;DHT22;46158;52.850;6.970;2024-01-15T08:06:44;15.00;69.10
60313;DHT22;46158;52.850;6.970;2024-01-15T08:09:10;15.10;69.20
60313;DHT22;46158;52.850;6.970;2024-01-15T08:11:38;15.10;69.20
60313;DHT22;46158;52.850;6.970;2024-01-15T08:14:04;15.10;69.20
60313;DHT22;46158;52.850;6.970;2024-01-15T08:16:30;15.10;69.20
60313;DHT22;46158;52.850;6.970;2024-01-15T08:18:55;15.20;69.20
60313;DHT22;46158;52.850;6.970;2024-01-15T08:21:21;15.10;69.20
60313;DHT22;46158;52.850;6.970;2024-01-15T08:23:47;15.10;69.10
60313;DHT22;46158;52.850;6.970;2024-01-15T08:26:13;15.10;69.20
60313;DHT22;46158;52.850;6.970;2024-01-15T08:28:39;15.20;69.20
60313;DHT22;46158;52.850;6.970;2024-01-15T08:31:04;15.20;69.20
60313;DHT22;46158;52.850;6.970;2024-01-15T08:33:30;15.20;69.20
60313;DHT22;46158;52.850;6.970;2024-01-15T08:35:55;15.20;69.20
60313;DHT22;46158;52.850;6.970;2024-01-15T08:38:21;15.30;69.20
60313;DHT22;46158;52.850;6.970;2024-01-15T08:40:47;15.20;69.20
60313;DHT22;46158;52.850;6.970;2024-01-15T08:43:13;15.20;69.20
60313;DHT22;46158;52.850;6.970;2024-01-15T08:45:39;15.30;69.20
60313;DHT22;46158;52.850;6.970;2024-01-15T08:48:04;15.30;69.10
60313;DHT22;46158;52.850;6.970;2024-01-15T08:50:32;15.30;69.00
60313;DHT22;46158;52.850;6.970;2024-01-15T08:52:58;15.30;68.90
60313;DHT22;46158;52.850;6.970;2024-01-15T08:55:24;15.40;68.90
60313;DHT22;46158;52.850;6.970;2024-01-15T08:57:49;15.40;68.70
60313;DHT22;46158;52.850;6.970;2024-01-15T09:00:16;15.50;68.70
60313;DHT22;46158;52.850;6.970;2024-01-15T09:02:42;15.50;68.70
60313;DHT22;46158;52.850;6.970;2024-01-15T09:05:08;15.50;69.40
60313;DHT22;46158;52.850;6.970;2024-01-15T09:07:33;15.50;68.70
60313;DHT22;46158;52.850;6.970;2024-01-15T09:09:59;15.50;68.70
60313;DHT22;46158;52.850;6.970;2024-01-15T09:12:25;15.50;68.80
60313;DHT22;46158;52.850;6.970;2024-01-15T09:14:51;15.50;68.80
60313;DHT22;46158;52.850;6.970;2024-01-15T09:17:19;15.50;68.80
60313;DHT22;46158;52.850;6.970;2024-01-15T09:19:45;15.50;68.90
60313;DHT22;46158;52.850;6.970;2024-01-15T09:22:12;15.50;68.90
60313;DHT22;46158;52.850;6.970;2024-01-15T09:24:40;15.60;69.00
60313;DHT22;46158;52.850;6.970;2024-01-15T09:27:07;15.60;69.00
60313;DHT22;46158;52.850;6.970;2024-01-15T09:29:33;15.60;69.00
60313;DHT22;46158;52.850;6.970;2024-01-15T09:31:58;15.60;69.00
60313;DHT22;46158;52.850;6.970;2024-01-15T09:34:24;15.60;69.10
60313;DHT22;46158;52.850;6.970;2024-01-15T09:36:50;15.60;69.10
60313;DHT22;46158;52.850;6.970;2024-01-15T09:39:16;15.60;69.00
60313;DHT22;46158;52.850;6.970;2024-01-15T09:41:42;15.60;69.10
60313;DHT22;46158;52.850;6.970;2024-01-15T09:44:08;15.70;69.10
60313;DHT22;46158;52.850;6.970;2024-01-15T09:46:35;15.70;69.10
60313;DHT22;46158;52.850;6.970;2024-01-15T09:49:01;15.70;69.10
60313;DHT22;46158;52.850;6.970;2024-01-15T09:51:31;15.70;69.00
60313;DHT22;46158;52.850;6.970;2024-01-15T09:53:57;15.70;69.00
60313;DHT22;46158;52.850;6.970;2024-01-15T09:56:24;15.70;69.00
60313;DHT22;46158;52.850;6.970;2024-01-15T09:58:50;15.60;68.90
60313;DHT22;46158;52.850;6.970;2024-01-15T10:01:20;15.70;68.90
60313;DHT22;46158;52.850;6.970;2024-01-15T10:03:46;15.70;68.90
60313;DHT22;46158;52.850;6.970;2024-01-15T10:06:15;15.70;68.90
60313;DHT22;46158;52.850;6.970;2024-01-15T10:08:47;15.70;68.80
60313;DHT22;46158;52.850;6.970;2024-01-15T10:11:13;15.70;68.70
60313;DHT22;46158;52.850;6.970;2024-01-15T10:13:39;15.70;68.70
60313;DHT22;46158;52.850;6.970;2024-01-15T10:16:05;15.70;68.80
60313;DHT22;46158;52.850;6.970;2024-01-15T10:18:32;15.70;68.70
60313;DHT22;46158;52.850;6.970;2024-01-15T10:20:58;15.70;68.60
60313;DHT22;46158;52.850;6.970;2024-01-15T10:23:24;15.70;68.60
60313;DHT22;46158;52.850;6.970;2024-01-15T10:25:50;15.70;68.60
60313;DHT22;46158;52.850;6.970;2024-01-15T10:28:19;15.70;68.60
60313;DHT22;46158;52.850;6.970;2024-01-15T10:30:45;15.70;68.60
60313;DHT22;46158;52.850;6.970;2024-01-15T10:33:11;15.70;68.50
60313;DHT22;46158;52.850;6.970;2024-01-15T10:35:38;15.70;69.10
60313;DHT22;46158;52.850;6.970;2024-01-15T10:38:05;15.70;68.40
60313;DHT22;46158;52.850;6.970;2024-01-15T10:40:31;15.80;68.50
60313;DHT22;46158;52.850;6.970;2024-01-15T10:42:57;15.70;68.40
60313;DHT22;46158;52.850;6.970;2024-01-15T10:45:23;15.80;68.60
60313;DHT22;46158;52.850;6.970;2024-01-15T10:47:49;15.80;68.40
60313;DHT22;46158;52.850;6.970;2024-01-15T10:50:15;15.80;68.40
60313;DHT22;46158;52.850;6.970;2024-01-15T10:52:41;15.80;68.30
60313;DHT22;46158;52.850;6.970;2024-01-15T10:55:09;15.80;68.30
60313;DHT22;46158;52.850;6.970;2024-01-15T10:57:36;15.80;68.20
60313;DHT22;46158;52.850;6.970;2024-01-15T11:00:03;15.80;68.30
60313;DHT22;46158;52.850;6.970;2024-01-15T11:02:35;15.80;68.20
60313;DHT22;46158;52.850;6.970;2024-01-15T11:05:01;15.80;68.20
60313;DHT22;46158;52.850;6.970;2024-01-15T11:07:27;15.80;68.20
60313;DHT22;46158;52.850;6.970;2024-01-15T11:09:52;15.80;68.30
60313;DHT22;46158;52.850;6.970;2024-01-15T11:12:18;15.80;69.00
60313;DHT22;46158;52.850;6.970;2024-01-15T11:14:49;15.80;68.20
60313;DHT22;46158;52.850;6.970;2024-01-15T11:17:15;15.80;68.20
60313;DHT22;46158;52.850;6.970;2024-01-15T11:22:48;15.80;68.30
60313;DHT22;46158;52.850;6.970;2024-01-15T11:25:03;15.80;68.20
60313;DHT22;46158;52.850;6.970;2024-01-15T11:27:44;15.70;68.80
60313;DHT22;46158;52.850;6.970;2024-01-15T11:30:11;15.80;68.10
60313;DHT22;46158;52.850;6.970;2024-01-15T11:32:38;15.80;68.10
60313;DHT22;46158;52.850;6.970;2024-01-15T11:35:07;15.80;68.10
60313;DHT22;46158;52.850;6.970;2024-01-15T11:40:23;15.80;68.00
60313;DHT22;46158;52.850;6.970;2024-01-15T11:43:05;15.80;68.00
60313;DHT22;46158;52.850;6.970;2024-01-15T11:45:31;15.80;68.10
60313;DHT22;46158;52.850;6.970;2024-01-15T11:48:10;15.80;68.10
60313;DHT22;46158;52.850;6.970;2024-01-15T11:50:40;15.80;68.10
60313;DHT22;46158;52.850;6.970;2024-01-15T11:55:58;15.80;68.00
60313;DHT22;46158;52.850;6.970;2024-01-15T11:58:24;15.80;68.10
60313;DHT22;46158;52.850;6.970;2024-01-15T12:00:51;15.80;68.00
60313;DHT22;46158;52.850;6.970;2024-01-15T12:03:22;15.80;67.90
60313;DHT22;46158;52.850;6.970;2024-01-15T12:05:47;15.80;67.90
60313;DHT22;46158;52.850;6.970;2024-01-15T12:08:13;15.80;67.80
60313;DHT22;46158;52.850;6.970;2024-01-15T12:10:42;15.80;67.80
60313;DHT22;46158;52.850;6.970;2024-01-15T12:13:15;15.80;68.30
60313;DHT22;46158;52.850;6.970;2024-01-15T12:15:44;15.80;67.90
60313;DHT22;46158;52.850;6.970;2024-01-15T12:18:11;15.80;68.00
60313;DHT22;46158;52.850;6.970;2024-01-15T12:20:37;15.80;67.90
60313;DHT22;46158;52.850;6.970;2024-01-15T12:23:03;15.80;67.90
60313;DHT22;46158;52.850;6.970;2024-01-15T12:25:30;15.80;67.90
60313;DHT22;46158;52.850;6.970;2024-01-15T12:27:56;15.80;67.90
60313;DHT22;46158;52.850;6.970;2024-01-15T12:30:22;15.80;67.90
60313;DHT22;46158;52.850;6.970;2024-01-15T12:32:48;15.80;67.90
60313;DHT22;46158;52.850;6.970;2024-01-15T12:35:14;15.80;67.90
60313;DHT22;46158;52.850;6.970;2024-01-15T12:37:41;15.80;67.90
60313;DHT22;46158;52.850;6.970;2024-01-15T12:40:07;15.80;67.90
60313;DHT22;46158;52.850;6.970;2024-01-15T12:42:35;15.80;67.80
60313;DHT22;46158;52.850;6.970;2024-01-15T12:45:01;15.90;67.80
60313;DHT22;46158;52.850;6.970;2024-01-15T12:47:26;15.90;67.80
60313;DHT22;46158;52.850;6.970;2024-01-15T12:49:52;15.90;67.70
60313;DHT22;46158;52.850;6.970;2024-01-15T12:52:21;15.90;67.70
60313;DHT22;46158;52.850;6.970;2024-01-15T12:54:51;15.90;67.70
60313;DHT22;46158;52.850;6.970;2024-01-15T12:57:17;15.90;67.70
60313;DHT22;46158;52.850;6.970;2024-01-15T12:59:43;15.90;67.80
60313;DHT22;46158;52.850;6.970;2024-01-15T13:02:11;15.90;67.70
60313;DHT22;46158;52.850;6.970;2024-01-15T13:04:37;15.90;67.70
60313;DHT22;46158;52.850;6.970;2024-01-15T13:07:03;15.90;67.70
60313;DHT22;46158;52.850;6.970;2024-01-15T13:09:28;16.00;67.70
60313;DHT22;46158;52.850;6.970;2024-01-15T13:11:55;16.00;67.70
60313;DHT22;46158;52.850;6.970;2024-01-15T13:14:20;16.00;67.70
60313;DHT22;46158;52.850;6.970;2024-01-15T13:16:46;16.00;67.70
60313;DHT22;46158;52.850;6.970;2024-01-15T13:19:12;16.00;67.70
60313;DHT22;46158;52.850;6.970;2024-01-15T13:21:42;16.00;67.70
60313;DHT22;46158;52.850;6.970;2024-01-15T13:24:08;16.00;67.70
60313;DHT22;46158;52.850;6.970;2024-01-15T13:26:34;16.10;67.70
60313;DHT22;46158;52.850;6.970;2024-01-15T13:29:01;16.10;67.70
60313;DHT22;46158;52.850;6.970;2024-01-15T13:31:27;16.10;67.70
60313;DHT22;46158;52.850;6.970;2024-01-15T13:33:53;16.10;67.70
60313;DHT22;46158;52.850;6.970;2024-01-15T13:36:21;16.10;67.70
60313;DHT22;46158;52.850;6.970;2024-01-15T13:38:49;16.10;67.70
60313;DHT22;46158;52.850;6.970;2024-01-15T13:41:15;16.10;67.70
60313;DHT22;46158;52.850;6.970;2024-01-15T13:43:40;16.10;67.70
60313;DHT22;46158;52.850;6.970;2024-01-15T13:46:06;16.10;67.70
60313;DHT22;46158;52.850;6.970;2024-01-15T13:48:32;16.10;67.70
60313;DHT22;46158;52.850;6.970;2024-01-15T13:50:59;16.20;67.70
60313;DHT22;46158;52.850;6.970;2024-01-15T13:53:25;16.20;67.70
60313;DHT22;46158;52.850;6.970;2024-01-15T13:55:51;16.20;67.60
60313;DHT22;46158;52.850;6.970;2024-01-15T13:58:17;16.10;67.50
60313;DHT22;46158;52.850;6.970;2024-01-15T14:00:44;16.20;67.50
60313;DHT22;46158;52.850;6.970;2024-01-15T14:03:10;16.20;67.50
60313;DHT22;46158;52.850;6.970;2024-01-15T14:05:35;16.20;67.50
60313;DHT22;46158;52.850;6.970;2024-01-15T14:08:01;16.20;67.50
60313;DHT22;46158;52.850;6.970;2024-01-15T14:10:26;16.20;67.40
60313;DHT22;46158;52.850;6.970;2024-01-15T14:12:52;16.20;67.40
60313;DHT22;46158;52.850;6.970;2024-01-15T14:15:18;16.20;67.30
60313;DHT22;46158;52.850;6.970;2024-01-15T14:17:46;16.20;67.30
60313;DHT22;46158;52.850;6.970;2024-01-15T14:20:12;16.20;67.30
60313;DHT22;46158;52.850;6.970;2024-01-15T14:22:38;16.20;67.20
60313;DHT22;46158;52.850;6.970;2024-01-15T14:25:04;16.20;67.20
60313;DHT22;46158;52.850;6.970;2024-01-15T14:27:30;16.30;67.20
60313;DHT22;46158;52.850;6.970;2024-01-15T14:29:55;16.30;67.20
60313;DHT22;46158;52.850;6.970;2024-01-15T14:32:21;16.30;67.20
60313;DHT22;46158;52.850;6.970;2024-01-15T14:34:46;16.30;67.20
60313;DHT22;46158;52.850;6.970;2024-01-15T14:37:13;16.30;67.20
60313;DHT22;46158;52.850;6.970;2024-01-15T14:39:39;16.30;66.70
60313;DHT22;46158;52.850;6.970;2024-01-15T14:42:04;16.30;66.80
60313;DHT22;46158;52.850;6.970;2024-01-15T14:44:30;16.30;66.90
60313;DHT22;46158;52.850;6.970;2024-01-15T14:46:58;16.30;66.90
60313;DHT22;46158;52.850;6.970;2024-01-15T14:49:24;16.40;67.00
60313;DHT22;46158;52.850;6.970;2024-01-15T14:51:50;16.30;66.80
60313;DHT22;46158;52.850;6.970;2024-01-15T14:54:16;16.40;66.90
60313;DHT22;46158;52.850;6.970;2024-01-15T14:56:41;16.40;66.80
60313;DHT22;46158;52.850;6.970;2024-01-15T14:59:08;16.40;66.90
60313;DHT22;46158;52.850;6.970;2024-01-15T15:01:34;16.40;66.80
60313;DHT22;46158;52.850;6.970;2024-01-15T15:04:00;16.40;66.90
60313;DHT22;46158;52.850;6.970;2024-01-15T15:06:26;16.40;66.80
60313;DHT22;46158;52.850;6.970;2024-01-15T15:08:53;16.40;66.90
60313;DHT22;46158;52.850;6.970;2024-01-15T15:11:21;16.40;66.80
60313;DHT22;46158;52.850;6.970;2024-01-15T15:13:48;16.40;66.70
60313;DHT22;46158;52.850;6.970;2024-01-15T15:16:15;16.40;66.60
60313;DHT22;46158;52.850;6.970;2024-01-15T15:18:41;16.40;66.60
60313;DHT22;46158;52.850;6.970;2024-01-15T15:21:12;16.40;66.50
60313;DHT22;46158;52.850;6.970;2024-01-15T15:23:37;16.40;66.50
60313;DHT22;46158;52.850;6.970;2024-01-15T15:26:06;16.40;66.50
60313;DHT22;46158;52.850;6.970;2024-01-15T15:28:32;16.40;66.50
60313;DHT22;46158;52.850;6.970;2024-01-15T15:31:02;16.40;66.40
60313;DHT22;46158;52.850;6.970;2024-01-15T15:33:28;16.40;66.50